createdAt,value
2023-02-17T00:01:39.972Z,7.53
2023-02-17T00:04:07.584Z,7.61
2023-02-17T00:06:38.912Z,7.56
2023-02-17T00:09:07.515Z,7.46
2023-02-17T00:11:43.904Z,7.44
2023-02-17T00:14:13.598Z,7.44
2023-02-17T00:16:42.591Z,7.51
2023-02-17T00:19:25.250Z,7.52
2023-02-17T00:21:56.594Z,7.64
2023-02-17T00:24:24.629Z,7.68
2023-02-17T00:26:52.457Z,7.79
2023-02-17T00:29:20.180Z,7.71
2023-02-17T00:31:48.321Z,7.75
2023-02-17T00:34:18.421Z,7.75
2023-02-17T00:36:46.360Z,7.80
2023-02-17T00:39:17.313Z,7.82
2023-02-17T00:41:45.739Z,7.78
2023-02-17T00:44:18.936Z,7.69
2023-02-17T00:46:47.775Z,7.67
2023-02-17T00:49:17.912Z,7.73
2023-02-17T00:51:48.573Z,7.72
2023-02-17T00:54:18.754Z,7.74
2023-02-17T00:56:46.952Z,7.73
2023-02-17T00:59:14.728Z,7.70
2023-02-17T01:01:42.474Z,7.77
2023-02-17T01:04:10.194Z,7.86
2023-02-17T01:06:39.688Z,7.81
2023-02-17T01:09:09.849Z,7.85
2023-02-17T01:11:38.723Z,7.79
2023-02-17T01:14:10.252Z,7.89
2023-02-17T01:16:39.805Z,7.83
2023-02-17T01:19:10.297Z,7.83
2023-02-17T01:21:37.968Z,7.78
2023-02-17T01:24:07.721Z,7.79
2023-02-17T01:26:37.238Z,7.82
2023-02-17T01:29:07.099Z,7.88
2023-02-17T01:31:34.940Z,7.86
2023-02-17T01:34:04.778Z,7.78
2023-02-17T01:36:33.410Z,7.92
2023-02-17T01:39:01.483Z,7.99
2023-02-17T01:41:30.036Z,7.95
2023-02-17T01:44:13.037Z,8.03
2023-02-17T01:46:41.919Z,8.03
2023-02-17T01:49:26.142Z,8.08
2023-02-17T01:51:58.130Z,7.97
2023-02-17T01:54:29.654Z,8.09
2023-02-17T01:57:00.777Z,8.04
2023-02-17T01:59:33.213Z,8.15
2023-02-17T02:02:05.793Z,8.29
2023-02-17T02:04:36.891Z,8.27
2023-02-17T02:07:07.190Z,8.25
2023-02-17T02:09:39.780Z,8.33
2023-02-17T02:12:18.930Z,8.03
2023-02-17T02:14:48.647Z,8.17
2023-02-17T02:17:26.969Z,8.02
2023-02-17T02:20:17.879Z,7.99
2023-02-17T02:23:14.017Z,7.96
2023-02-17T02:26:20.747Z,7.88
2023-02-17T02:29:09.675Z,7.99
2023-02-17T02:31:49.077Z,7.95
2023-02-17T02:34:25.683Z,8.01
2023-02-17T02:37:04.413Z,7.98
2023-02-17T02:39:39.857Z,8.01
2023-02-17T02:42:13.397Z,8.13
2023-02-17T02:44:41.242Z,8.17
2023-02-17T02:47:44.744Z,8.20
2023-02-17T02:50:21.252Z,8.19
2023-02-17T02:53:15.425Z,8.26
2023-02-17T02:55:53.635Z,8.32
2023-02-17T02:58:25.412Z,8.43
2023-02-17T03:01:00.049Z,8.46
2023-02-17T03:03:36.352Z,8.46
2023-02-17T03:06:16.797Z,8.53
2023-02-17T03:08:48.714Z,8.61
2023-02-17T03:11:32.170Z,8.63
2023-02-17T03:14:04.370Z,8.70
2023-02-17T03:16:32.742Z,8.76
2023-02-17T03:19:00.562Z,8.72
2023-02-17T03:21:36.382Z,8.78
2023-02-17T03:24:04.137Z,8.85
2023-02-17T03:26:32.173Z,8.95
2023-02-17T03:28:59.850Z,9.01
2023-02-17T03:31:30.715Z,9.11
2023-02-17T03:33:58.861Z,9.11
2023-02-17T03:36:26.469Z,9.23
2023-02-17T03:38:58.399Z,9.33
2023-02-17T03:41:26.392Z,9.45
2023-02-17T03:43:53.935Z,9.41
2023-02-17T03:46:21.669Z,9.59
2023-02-17T03:48:49.384Z,9.61
2023-02-17T03:51:20.277Z,9.71
2023-02-17T03:53:48.796Z,9.61
2023-02-17T03:56:19.562Z,9.68
2023-02-17T03:58:47.113Z,9.68
2023-02-17T04:01:15.444Z,9.88
2023-02-17T04:03:43.409Z,9.79
2023-02-17T04:06:11.724Z,9.84
2023-02-17T04:08:43.400Z,9.86
2023-02-17T04:11:14.316Z,9.81
2023-02-17T04:13:43.625Z,9.84
2023-02-17T04:16:12.531Z,9.86
2023-02-17T04:18:40.805Z,9.76
2023-02-17T04:21:08.782Z,9.79
2023-02-17T04:23:37.282Z,9.80
2023-02-17T04:26:16.524Z,9.86
2023-02-17T04:28:45.443Z,9.80
2023-02-17T04:31:13.274Z,9.83
2023-02-17T04:33:43.894Z,9.82
2023-02-17T04:36:14.101Z,9.75
2023-02-17T04:38:41.962Z,9.69
2023-02-17T04:41:09.574Z,9.86
2023-02-17T04:43:37.188Z,9.81
2023-02-17T04:46:09.688Z,9.77
2023-02-17T04:48:39.274Z,9.77
2023-02-17T04:51:07.457Z,9.83
2023-02-17T04:53:35.318Z,9.81
2023-02-17T04:56:03.022Z,9.75
2023-02-17T04:58:30.554Z,9.80
2023-02-17T05:01:00.507Z,9.77
2023-02-17T05:03:29.705Z,9.92
2023-02-17T05:06:01.079Z,9.87
2023-02-17T05:08:28.947Z,9.99
2023-02-17T05:10:56.841Z,9.83
2023-02-17T05:13:24.389Z,9.88
2023-02-17T05:15:51.988Z,9.93
2023-02-17T05:18:19.740Z,9.91
2023-02-17T05:20:48.615Z,9.98
2023-02-17T05:23:16.309Z,10.04
2023-02-17T05:25:44.866Z,10.09
2023-02-17T05:28:18.006Z,10.04
2023-02-17T05:30:45.845Z,9.92
2023-02-17T05:33:13.813Z,9.93
2023-02-17T05:35:44.068Z,9.97
2023-02-17T05:38:14.158Z,9.88
2023-02-17T05:40:41.957Z,9.98
2023-02-17T05:43:09.755Z,9.91
2023-02-17T05:45:37.438Z,9.91
2023-02-17T05:48:05.390Z,9.92
2023-02-17T05:50:33.191Z,9.92
2023-02-17T05:53:00.811Z,10.09
2023-02-17T05:55:29.786Z,10.12
2023-02-17T05:57:57.291Z,10.09
2023-02-17T06:00:25.177Z,10.21
2023-02-17T06:02:52.860Z,10.24
2023-02-17T06:05:22.256Z,10.14
2023-02-17T06:07:49.912Z,10.23
2023-02-17T06:10:17.555Z,10.32
2023-02-17T06:12:46.408Z,10.24
2023-02-17T06:15:14.133Z,10.15
2023-02-17T06:17:41.746Z,10.16
2023-02-17T06:20:11.024Z,10.12
2023-02-17T06:22:38.664Z,10.10
2023-02-17T06:25:06.908Z,10.03
2023-02-17T06:27:34.543Z,10.03
2023-02-17T06:30:03.608Z,10.04
2023-02-17T06:32:31.372Z,10.02
2023-02-17T06:34:58.865Z,10.04
2023-02-17T06:37:26.585Z,10.11
2023-02-17T06:39:54.138Z,10.13
2023-02-17T06:42:21.676Z,10.14
2023-02-17T06:44:49.335Z,10.19
2023-02-17T06:47:20.310Z,10.12
2023-02-17T06:49:48.960Z,10.12
2023-02-17T06:52:16.489Z,10.15
2023-02-17T06:54:44.018Z,10.24
2023-02-17T06:57:11.627Z,10.26
2023-02-17T06:59:39.191Z,10.36
2023-02-17T07:02:07.626Z,10.25
2023-02-17T07:04:36.528Z,10.37
2023-02-17T07:07:04.094Z,10.34
2023-02-17T07:09:32.928Z,10.36
2023-02-17T07:12:00.673Z,10.35
2023-02-17T07:14:29.721Z,10.48
2023-02-17T07:16:57.262Z,10.36
2023-02-17T07:19:24.881Z,10.57
2023-02-17T07:21:53.995Z,10.56
2023-02-17T07:24:21.535Z,10.52
2023-02-17T07:26:49.440Z,10.56
2023-02-17T07:29:18.651Z,10.53
2023-02-17T07:31:51.031Z,10.67
2023-02-17T07:34:19.617Z,10.79
2023-02-17T07:36:47.238Z,10.74
2023-02-17T07:39:16.229Z,10.63
2023-02-17T07:41:43.831Z,10.68
2023-02-17T07:44:17.245Z,10.83
2023-02-17T07:46:45.295Z,10.80
2023-02-17T07:49:16.769Z,10.82
2023-02-17T07:51:45.332Z,10.80
2023-02-17T07:54:14.067Z,10.77
2023-02-17T07:56:43.040Z,10.92
2023-02-17T07:59:11.006Z,10.98
2023-02-17T08:01:38.837Z,11.00
2023-02-17T08:04:06.481Z,10.90
2023-02-17T08:06:34.125Z,10.90
2023-02-17T08:09:19.382Z,10.79
2023-02-17T08:12:06.150Z,11.00
2023-02-17T08:14:33.741Z,11.08
2023-02-17T08:17:01.689Z,11.02
2023-02-17T08:19:42.879Z,11.06
2023-02-17T08:22:14.426Z,11.10
2023-02-17T08:24:42.038Z,11.07
2023-02-17T08:27:11.085Z,11.11
2023-02-17T08:29:38.802Z,11.29
2023-02-17T08:32:09.550Z,11.38
2023-02-17T08:34:37.235Z,11.56
2023-02-17T08:37:07.288Z,11.63
2023-02-17T08:39:35.841Z,11.80
2023-02-17T08:42:04.847Z,12.01
2023-02-17T08:44:43.427Z,11.79
2023-02-17T08:47:11.698Z,11.92
2023-02-17T08:49:39.732Z,11.94
2023-02-17T08:52:07.298Z,11.98
2023-02-17T08:54:35.213Z,11.93
2023-02-17T08:57:02.742Z,11.96
2023-02-17T08:59:30.470Z,11.94
2023-02-17T09:02:06.403Z,12.11
2023-02-17T09:04:34.218Z,12.14
2023-02-17T09:07:02.945Z,12.12
2023-02-17T09:09:31.593Z,12.22
2023-02-17T09:11:59.984Z,12.01
2023-02-17T09:14:28.506Z,11.91
2023-02-17T09:16:59.557Z,11.71
2023-02-17T09:19:28.649Z,11.39
2023-02-17T09:21:57.372Z,11.48
2023-02-17T09:24:24.993Z,11.51
2023-02-17T09:26:52.648Z,11.46
2023-02-17T09:29:20.308Z,11.46
2023-02-17T09:31:47.984Z,11.63
2023-02-17T09:34:15.824Z,11.64
2023-02-17T09:36:45.311Z,11.70
2023-02-17T09:39:14.788Z,11.50
2023-02-17T09:41:47.276Z,11.66
2023-02-17T09:44:22.491Z,11.66
2023-02-17T09:47:02.286Z,11.54
2023-02-17T09:49:37.131Z,11.70
2023-02-17T09:52:19.672Z,11.65
2023-02-17T09:54:58.169Z,11.75
2023-02-17T09:57:29.292Z,11.90
2023-02-17T10:00:03.893Z,12.06
2023-02-17T10:02:40.145Z,12.18
2023-02-17T10:05:12.098Z,12.04
2023-02-17T10:07:47.131Z,12.14
2023-02-17T10:10:19.268Z,12.21
2023-02-17T10:12:52.485Z,12.04
2023-02-17T10:15:24.235Z,12.21
2023-02-17T10:17:57.928Z,12.21
2023-02-17T10:20:32.008Z,12.30
2023-02-17T10:23:08.113Z,12.20
2023-02-17T10:25:51.838Z,12.36
2023-02-17T10:28:27.656Z,12.33
2023-02-17T10:31:04.243Z,12.72
2023-02-17T10:33:39.282Z,12.72
2023-02-17T10:36:19.718Z,12.98
2023-02-17T10:38:52.614Z,13.08
2023-02-17T10:41:23.757Z,13.23
2023-02-17T10:43:52.643Z,13.51
2023-02-17T10:46:31.656Z,13.25
2023-02-17T10:49:02.470Z,13.54
2023-02-17T10:51:31.673Z,13.68
2023-02-17T10:54:06.735Z,13.78
2023-02-17T10:56:40.584Z,13.70
2023-02-17T10:59:15.728Z,13.60
2023-02-17T11:01:44.284Z,13.88
2023-02-17T11:04:14.083Z,13.84
2023-02-17T11:06:45.322Z,13.37
2023-02-17T11:09:28.509Z,13.61
2023-02-17T11:12:01.217Z,13.47
2023-02-17T11:14:30.854Z,13.56
2023-02-17T11:17:00.604Z,13.60
2023-02-17T11:19:30.832Z,13.85
2023-02-17T11:22:00.433Z,13.70
2023-02-17T11:24:32.192Z,13.84
2023-02-17T11:27:01.313Z,13.79
2023-02-17T11:29:29.606Z,14.20
2023-02-17T11:32:00.026Z,14.17
2023-02-17T11:34:29.772Z,14.17
2023-02-17T11:37:02.798Z,14.22
2023-02-17T11:39:32.144Z,14.15
2023-02-17T11:42:00.742Z,13.79
2023-02-17T11:44:29.781Z,13.85
2023-02-17T11:47:15.720Z,13.80
2023-02-17T11:50:12.729Z,13.82
2023-02-17T11:52:54.025Z,13.88
2023-02-17T11:55:30.565Z,13.98
2023-02-17T11:58:16.692Z,13.85
2023-02-17T12:00:52.410Z,13.86
2023-02-17T12:04:14.679Z,13.86
2023-02-17T12:06:59.345Z,13.69
2023-02-17T12:09:35.720Z,13.55
2023-02-17T12:12:17.792Z,13.39
2023-02-17T12:14:59.760Z,13.51
2023-02-17T12:17:39.550Z,13.54
2023-02-17T12:20:29.175Z,13.54
2023-02-17T12:23:09.083Z,13.52
2023-02-17T12:26:12.973Z,13.55
2023-02-17T12:29:03.793Z,13.55
2023-02-17T12:31:53.539Z,13.68
2023-02-17T12:34:30.337Z,14.05
2023-02-17T12:36:59.862Z,13.97
2023-02-17T12:39:33.729Z,14.07
2023-02-17T12:42:08.169Z,14.16
2023-02-17T12:44:41.249Z,14.14
2023-02-17T12:47:15.877Z,14.38
2023-02-17T12:49:48.439Z,14.50
2023-02-17T12:52:25.747Z,14.71
2023-02-17T12:54:57.043Z,14.81
2023-02-17T12:57:28.994Z,14.80
2023-02-17T12:59:59.751Z,14.85
2023-02-17T13:02:27.660Z,14.88
2023-02-17T13:05:02.202Z,14.86
2023-02-17T13:07:53.075Z,14.55
2023-02-17T13:10:33.552Z,14.48
2023-02-17T13:13:04.158Z,14.56
2023-02-17T13:15:36.806Z,14.47
2023-02-17T13:18:06.970Z,14.36
2023-02-17T13:20:54.431Z,14.41
2023-02-17T13:23:39.205Z,14.68
2023-02-17T13:26:28.576Z,14.77
2023-02-17T13:29:13.386Z,14.85
2023-02-17T13:31:54.562Z,14.86
2023-02-17T13:34:31.408Z,14.83
2023-02-17T13:37:03.625Z,14.85
2023-02-17T13:39:38.369Z,14.54
2023-02-17T13:42:37.344Z,14.46
2023-02-17T13:45:15.369Z,14.45
2023-02-17T13:47:46.912Z,14.32
2023-02-17T13:50:29.443Z,14.20
2023-02-17T13:52:57.461Z,14.06
2023-02-17T13:55:25.744Z,14.09
2023-02-17T13:57:54.451Z,14.20
2023-02-17T14:00:25.150Z,14.20
2023-02-17T14:02:58.957Z,14.04
2023-02-17T14:05:36.997Z,14.01
2023-02-17T14:08:08.952Z,14.22
2023-02-17T14:10:42.244Z,14.24
2023-02-17T14:13:16.248Z,14.36
2023-02-17T14:15:57.803Z,14.19
2023-02-17T14:18:33.928Z,14.16
2023-02-17T14:21:09.206Z,14.12
2023-02-17T14:23:44.741Z,14.27
2023-02-17T14:26:16.592Z,14.32
2023-02-17T14:28:54.859Z,14.47
2023-02-17T14:31:23.880Z,14.30
2023-02-17T14:34:01.486Z,14.20
2023-02-17T14:36:33.654Z,14.33
2023-02-17T14:39:02.520Z,14.23
2023-02-17T14:41:31.673Z,14.33
2023-02-17T14:43:59.879Z,14.32
2023-02-17T14:46:29.709Z,14.38
2023-02-17T14:48:58.758Z,14.35
2023-02-17T14:51:32.664Z,14.23
2023-02-17T14:54:03.207Z,14.11
2023-02-17T14:56:34.903Z,14.26
2023-02-17T14:59:02.589Z,14.22
2023-02-17T15:01:30.188Z,14.24
2023-02-17T15:03:59.135Z,14.35
2023-02-17T15:06:32.578Z,14.33
2023-02-17T15:09:02.256Z,14.32
2023-02-17T15:11:36.794Z,14.29
2023-02-17T15:14:08.375Z,14.17
2023-02-17T15:16:36.594Z,14.10
2023-02-17T15:19:05.555Z,14.23
2023-02-17T15:21:35.136Z,14.29
2023-02-17T15:24:04.408Z,14.17
2023-02-17T15:26:36.301Z,14.16
2023-02-17T15:29:04.384Z,14.19
2023-02-17T15:31:35.250Z,14.15
2023-02-17T15:34:09.617Z,14.14
2023-02-17T15:36:37.279Z,14.19
2023-02-17T15:39:04.864Z,14.05
2023-02-17T15:41:35.242Z,14.07
2023-02-17T15:44:08.277Z,14.11
2023-02-17T15:46:36.840Z,14.21
2023-02-17T15:49:06.168Z,14.06
2023-02-17T15:51:33.753Z,14.01
2023-02-17T15:54:01.541Z,13.84
2023-02-17T15:56:33.453Z,13.88
2023-02-17T15:59:16.171Z,13.86
2023-02-17T16:01:46.805Z,13.78
2023-02-17T16:04:19.850Z,13.79
2023-02-17T16:09:33.353Z,13.73
2023-02-17T16:12:01.616Z,13.67
2023-02-17T16:14:34.768Z,13.69
2023-02-17T16:17:03.086Z,13.60
2023-02-17T16:19:34.899Z,13.62
2023-02-17T16:22:02.551Z,13.58
2023-02-17T16:24:30.307Z,13.59
2023-02-17T16:26:58.008Z,13.59
2023-02-17T16:29:25.534Z,13.51
2023-02-17T16:32:28.486Z,13.58
2023-02-17T16:38:23.405Z,13.41
2023-02-17T16:40:55.174Z,13.38
2023-02-17T16:43:25.344Z,13.41
2023-02-17T16:45:57.546Z,13.40
2023-02-17T16:48:27.433Z,13.35
2023-02-17T16:50:58.420Z,13.31
2023-02-17T16:53:29.755Z,13.33
2023-02-17T16:55:57.843Z,13.35
2023-02-17T16:58:31.342Z,13.28
2023-02-17T17:01:00.312Z,13.27
2023-02-17T17:03:30.194Z,13.19
2023-02-17T17:06:00.111Z,13.20
2023-02-17T17:08:29.686Z,13.18
2023-02-17T17:10:58.761Z,13.14
2023-02-17T17:13:28.803Z,13.16
2023-02-17T17:15:57.059Z,13.11
2023-02-17T17:18:24.811Z,13.05
2023-02-17T17:20:52.821Z,13.07
2023-02-17T17:23:31.803Z,13.07
2023-02-17T17:25:59.652Z,13.05
2023-02-17T17:28:35.965Z,13.14
2023-02-17T17:31:06.220Z,13.10
2023-02-17T17:33:47.965Z,13.14
2023-02-17T17:36:29.745Z,13.03
2023-02-17T17:39:02.509Z,13.10
2023-02-17T17:41:30.820Z,13.14
2023-02-17T17:44:00.018Z,13.09
2023-02-17T17:46:33.040Z,13.13
2023-02-17T17:49:03.312Z,13.11
2023-02-17T17:51:32.545Z,13.17
2023-02-17T17:54:08.771Z,13.10
2023-02-17T17:56:41.915Z,13.16
2023-02-17T17:59:10.238Z,13.16
2023-02-17T18:01:38.417Z,13.14
2023-02-17T18:04:09.285Z,13.11
2023-02-17T18:06:42.942Z,13.04
2023-02-17T18:09:30.228Z,13.14
2023-02-17T18:12:01.391Z,13.09
2023-02-17T18:14:29.948Z,13.14
2023-02-17T18:16:58.956Z,13.10
2023-02-17T18:19:27.236Z,13.11
2023-02-17T18:21:54.832Z,13.10
2023-02-17T18:24:23.710Z,13.15
2023-02-17T18:26:52.155Z,13.17
2023-02-17T18:29:20.376Z,13.08
2023-02-17T18:31:48.438Z,12.97
2023-02-17T18:34:19.211Z,13.00
2023-02-17T18:36:47.063Z,12.88
2023-02-17T18:39:14.782Z,12.85
2023-02-17T18:41:43.671Z,12.84
2023-02-17T18:44:15.863Z,12.77
2023-02-17T18:46:43.871Z,12.75
2023-02-17T18:49:11.724Z,12.84
2023-02-17T18:51:39.701Z,12.72
2023-02-17T18:54:12.957Z,12.85
2023-02-17T18:56:43.292Z,12.75
2023-02-17T18:59:12.188Z,12.78
2023-02-17T19:01:40.940Z,12.78
2023-02-17T19:04:12.440Z,12.79
2023-02-17T19:06:42.591Z,12.88
2023-02-17T19:09:10.391Z,12.84
2023-02-17T19:11:38.258Z,12.85
2023-02-17T19:14:06.104Z,12.86
2023-02-17T19:16:36.631Z,12.82
2023-02-17T19:19:04.599Z,12.84
2023-02-17T19:21:35.936Z,12.83
2023-02-17T19:24:03.841Z,12.82
2023-02-17T19:26:34.055Z,12.88
2023-02-17T19:29:01.609Z,12.92
2023-02-17T19:31:29.588Z,12.94
2023-02-17T19:34:07.452Z,12.85
2023-02-17T19:36:34.988Z,12.86
2023-02-17T19:41:45.113Z,12.80
2023-02-17T19:44:12.690Z,12.83
2023-02-17T19:46:40.893Z,12.83
2023-02-17T19:49:10.147Z,12.84
2023-02-17T19:51:37.724Z,12.83
2023-02-17T19:54:05.618Z,12.88
2023-02-17T19:56:35.185Z,12.84
2023-02-17T19:59:03.347Z,12.83
2023-02-17T20:01:33.510Z,12.82
2023-02-17T20:04:06.023Z,12.73
2023-02-17T20:06:39.647Z,12.81
2023-02-17T20:09:10.519Z,12.76
2023-02-17T20:11:38.580Z,12.74
2023-02-17T20:14:07.012Z,12.66
2023-02-17T20:16:39.039Z,12.75
2023-02-17T20:19:09.970Z,12.81
2023-02-17T20:21:42.218Z,12.82
2023-02-17T20:24:10.643Z,12.75
2023-02-17T20:26:40.698Z,12.66
2023-02-17T20:29:18.909Z,12.66
2023-02-17T20:31:46.655Z,12.70
2023-02-17T20:34:26.885Z,12.69
2023-02-17T20:37:04.426Z,12.60
2023-02-17T20:39:32.010Z,12.61
2023-02-17T20:42:00.566Z,12.60
2023-02-17T20:44:28.567Z,12.55
2023-02-17T20:46:57.156Z,12.54
2023-02-17T20:49:25.469Z,12.52
2023-02-17T20:51:53.810Z,12.44
2023-02-17T20:54:25.331Z,12.40
2023-02-17T20:56:53.092Z,12.38
2023-02-17T20:59:20.835Z,12.40
2023-02-17T21:01:48.664Z,12.45
2023-02-17T21:04:19.573Z,12.50
2023-02-17T21:06:47.392Z,12.40
2023-02-17T21:09:19.383Z,12.39
2023-02-17T21:11:48.938Z,12.43
2023-02-17T21:14:16.600Z,12.44
2023-02-17T21:16:45.239Z,12.48
2023-02-17T21:19:13.014Z,12.55
2023-02-17T21:21:41.796Z,12.60
2023-02-17T21:24:09.618Z,12.53
2023-02-17T21:26:44.435Z,12.66
2023-02-17T21:29:15.384Z,12.49
2023-02-17T21:31:43.014Z,12.53
2023-02-17T21:34:10.698Z,12.49
2023-02-17T21:36:38.462Z,12.64
2023-02-17T21:39:06.544Z,12.58
2023-02-17T21:41:34.585Z,12.61
2023-02-17T21:44:20.867Z,12.72
2023-02-17T21:46:49.862Z,12.72
2023-02-17T21:49:17.433Z,12.66
2023-02-17T21:55:45.672Z,12.67
2023-02-17T21:58:15.236Z,12.59
2023-02-17T22:00:42.813Z,12.59
2023-02-17T22:03:11.849Z,12.70
2023-02-17T22:05:39.410Z,12.65
2023-02-17T22:08:07.181Z,12.70
2023-02-17T22:10:37.707Z,12.63
2023-02-17T22:13:06.089Z,12.61
2023-02-17T22:15:33.796Z,12.61
2023-02-17T22:18:02.099Z,12.71
2023-02-17T22:20:31.334Z,12.70
2023-02-17T22:22:58.884Z,12.59
2023-02-17T22:25:26.503Z,12.59
2023-02-17T22:27:54.099Z,12.46
2023-02-17T22:30:21.873Z,12.41
2023-02-17T22:32:52.190Z,12.30
2023-02-17T22:35:20.877Z,12.15
2023-02-17T22:37:51.694Z,12.05
2023-02-17T22:40:19.756Z,12.03
2023-02-17T22:42:49.753Z,12.04
2023-02-17T22:45:18.302Z,12.04
2023-02-17T22:47:45.926Z,12.16
2023-02-17T22:50:13.532Z,12.27
2023-02-17T22:52:41.780Z,12.24
2023-02-17T22:55:10.822Z,12.25
2023-02-17T22:57:45.649Z,12.32
2023-02-17T23:00:15.210Z,12.31
2023-02-17T23:02:42.957Z,12.29
2023-02-17T23:05:11.023Z,12.34
2023-02-17T23:07:38.624Z,12.35
2023-02-17T23:10:07.780Z,12.28
2023-02-17T23:12:37.792Z,12.24
2023-02-17T23:15:06.694Z,12.35
2023-02-17T23:17:55.887Z,12.33
2023-02-17T23:20:24.710Z,12.40
2023-02-17T23:22:58.243Z,12.39
2023-02-17T23:25:25.879Z,12.50
2023-02-17T23:27:54.924Z,12.48
2023-02-17T23:30:27.387Z,12.39
2023-02-17T23:32:55.680Z,12.36
2023-02-17T23:35:23.314Z,12.24
2023-02-17T23:37:53.488Z,12.32
2023-02-17T23:40:23.983Z,12.25
2023-02-17T23:42:53.736Z,12.22
2023-02-17T23:45:23.806Z,12.28
2023-02-17T23:47:51.354Z,12.41
2023-02-17T23:50:19.507Z,12.38
2023-02-17T23:52:47.115Z,12.23
2023-02-17T23:55:14.928Z,12.30
2023-02-17T23:57:42.592Z,12.28
